createdAt,value
2022-08-21T00:00:09.656Z,19.48
2022-08-21T00:01:18.148Z,19.44
2022-08-21T00:02:28.613Z,19.47
2022-08-21T00:03:32.410Z,19.47
2022-08-21T00:04:48.237Z,19.47
2022-08-21T00:05:46.927Z,19.47
2022-08-21T00:06:52.870Z,19.42
2022-08-21T00:08:00.290Z,19.42
2022-08-21T00:09:07.264Z,19.41
2022-08-21T00:10:13.007Z,19.39
2022-08-21T00:11:17.097Z,19.37
2022-08-21T00:12:21.472Z,19.37
2022-08-21T00:13:25.602Z,19.34
2022-08-21T00:14:32.010Z,19.34
2022-08-21T00:15:38.439Z,19.37
2022-08-21T00:16:44.536Z,19.33
2022-08-21T00:18:06.541Z,19.32
2022-08-21T00:19:01.485Z,19.32
2022-08-21T00:20:10.290Z,19.31
2022-08-21T00:21:31.072Z,19.29
2022-08-21T00:23:35.728Z,19.28
2022-08-21T00:24:41.291Z,19.29
2022-08-21T00:25:41.160Z,19.29
2022-08-21T00:25:48.415Z,19.28
2022-08-21T00:26:57.438Z,19.28
2022-08-21T00:28:00.027Z,19.28
2022-08-21T00:29:05.621Z,19.29
2022-08-21T00:30:23.001Z,19.28
2022-08-21T00:31:18.495Z,19.28
2022-08-21T00:32:26.818Z,19.28
2022-08-21T00:33:31.178Z,19.28
2022-08-21T00:34:35.363Z,19.30
2022-08-21T00:35:42.081Z,19.33
2022-08-21T00:36:46.701Z,19.34
2022-08-21T00:37:51.141Z,19.36
2022-08-21T00:38:55.274Z,19.36
2022-08-21T00:39:59.491Z,19.35
2022-08-21T00:41:27.568Z,19.36
2022-08-21T00:42:12.860Z,19.36
2022-08-21T00:43:19.965Z,19.35
2022-08-21T00:44:24.021Z,19.34
2022-08-21T00:45:28.123Z,19.33
2022-08-21T00:46:32.370Z,19.33
2022-08-21T00:47:36.415Z,19.34
2022-08-21T00:48:40.451Z,19.34
2022-08-21T00:49:45.455Z,19.32
2022-08-21T00:51:07.664Z,19.30
2022-08-21T00:52:14.673Z,19.30
2022-08-21T00:53:19.860Z,19.31
2022-08-21T00:54:26.522Z,19.31
2022-08-21T00:55:33.891Z,19.29
2022-08-21T00:56:38.984Z,19.28
2022-08-21T00:57:47.696Z,19.28
2022-08-21T00:58:55.328Z,19.30
2022-08-21T01:00:03.628Z,19.27
2022-08-21T01:01:11.733Z,19.27
2022-08-21T01:02:17.253Z,19.24
2022-08-21T01:03:24.030Z,19.18
2022-08-21T01:04:28.364Z,19.21
2022-08-21T01:05:35.024Z,19.21
2022-08-21T01:06:38.939Z,19.16
2022-08-21T01:07:43.568Z,19.16
2022-08-21T01:08:48.171Z,19.14
2022-08-21T01:09:52.594Z,19.13
2022-08-21T01:10:57.914Z,19.13
2022-08-21T01:12:02.855Z,19.13
2022-08-21T01:13:11.131Z,19.13
2022-08-21T01:14:16.182Z,19.13
2022-08-21T01:15:21.019Z,19.16
2022-08-21T01:16:25.909Z,19.14
2022-08-21T01:17:34.735Z,19.13
2022-08-21T01:18:39.020Z,19.13
2022-08-21T01:19:44.906Z,19.12
2022-08-21T01:21:03.906Z,19.11
2022-08-21T01:22:07.936Z,19.11
2022-08-21T01:23:12.060Z,19.13
2022-08-21T01:24:16.153Z,19.11
2022-08-21T01:25:20.434Z,19.12
2022-08-21T01:26:32.682Z,19.12
2022-08-21T01:27:38.561Z,19.12
2022-08-21T01:28:45.570Z,19.11
2022-08-21T01:30:01.691Z,19.12
2022-08-21T01:31:10.654Z,19.13
2022-08-21T01:32:18.065Z,19.13
2022-08-21T01:33:25.307Z,19.14
2022-08-21T01:34:29.447Z,19.14
2022-08-21T01:35:33.484Z,19.16
2022-08-21T01:36:37.646Z,19.19
2022-08-21T01:37:41.870Z,19.20
2022-08-21T01:38:50.310Z,19.20
2022-08-21T01:39:54.378Z,19.21
2022-08-21T01:40:58.477Z,19.24
2022-08-21T01:42:03.114Z,19.27
2022-08-21T01:43:07.589Z,19.27
2022-08-21T01:44:11.628Z,19.27
2022-08-21T01:45:16.429Z,19.27
2022-08-21T01:46:21.599Z,19.27
2022-08-21T01:47:25.731Z,19.25
2022-08-21T01:48:29.755Z,19.25
2022-08-21T01:49:33.798Z,19.30
2022-08-21T01:50:38.736Z,19.30
2022-08-21T01:51:42.942Z,19.32
2022-08-21T01:52:47.353Z,19.35
2022-08-21T01:53:51.762Z,19.35
2022-08-21T01:54:55.874Z,19.35
2022-08-21T01:56:02.252Z,19.34
2022-08-21T01:57:07.466Z,19.35
2022-08-21T01:58:12.807Z,19.35
2022-08-21T01:59:16.928Z,19.33
2022-08-21T02:00:23.645Z,19.32
2022-08-21T02:01:27.785Z,19.32
2022-08-21T02:02:31.898Z,19.32
2022-08-21T02:03:37.994Z,19.35
2022-08-21T02:04:41.953Z,19.37
2022-08-21T02:05:47.720Z,19.38
2022-08-21T02:06:52.145Z,19.41
2022-08-21T02:07:56.442Z,19.41
2022-08-21T02:09:00.442Z,19.45
2022-08-21T02:10:05.982Z,19.48
2022-08-21T02:11:10.135Z,19.48
2022-08-21T02:12:14.180Z,19.51
2022-08-21T02:13:18.730Z,19.52
2022-08-21T02:14:32.450Z,18.10
2022-08-21T02:15:30.628Z,19.53
2022-08-21T02:16:35.141Z,19.53
2022-08-21T02:17:49.823Z,19.53
2022-08-21T02:18:55.206Z,19.48
2022-08-21T02:19:59.350Z,19.48
2022-08-21T02:21:06.824Z,19.45
2022-08-21T02:22:12.827Z,19.45
2022-08-21T02:23:18.670Z,19.44
2022-08-21T02:24:27.287Z,19.39
2022-08-21T02:25:31.493Z,19.37
2022-08-21T02:26:36.196Z,18.95
2022-08-21T02:27:42.695Z,19.33
2022-08-21T02:28:46.765Z,19.33
2022-08-21T02:29:50.754Z,19.27
2022-08-21T02:30:55.943Z,19.20
2022-08-21T02:32:00.110Z,19.18
2022-08-21T02:33:04.267Z,19.18
2022-08-21T02:34:08.255Z,19.17
2022-08-21T02:35:14.732Z,19.19
2022-08-21T02:36:19.730Z,19.20
2022-08-21T02:37:24.332Z,19.20
2022-08-21T02:38:31.404Z,19.19
2022-08-21T02:39:37.053Z,19.19
2022-08-21T02:40:48.259Z,19.21
2022-08-21T02:41:52.362Z,19.20
2022-08-21T02:42:56.553Z,19.20
2022-08-21T02:44:02.302Z,19.20
2022-08-21T02:45:07.436Z,19.20
2022-08-21T02:46:15.184Z,19.20
2022-08-21T02:47:19.361Z,19.20
2022-08-21T02:48:26.507Z,19.20
2022-08-21T02:49:30.537Z,19.18
2022-08-21T02:50:41.099Z,19.14
2022-08-21T02:51:46.635Z,19.10
2022-08-21T02:52:55.150Z,19.07
2022-08-21T02:53:58.033Z,19.02
2022-08-21T02:55:05.675Z,19.02
2022-08-21T02:56:11.298Z,18.99
2022-08-21T02:57:15.366Z,18.96
2022-08-21T02:58:22.206Z,18.94
2022-08-21T02:59:26.246Z,18.94
2022-08-21T03:00:32.104Z,18.88
2022-08-21T03:01:36.305Z,18.85
2022-08-21T03:02:40.508Z,18.85
2022-08-21T03:03:46.506Z,18.79
2022-08-21T03:04:52.898Z,18.81
2022-08-21T03:05:57.440Z,18.81
2022-08-21T03:07:02.263Z,18.81
2022-08-21T03:08:08.761Z,18.76
2022-08-21T03:09:12.736Z,18.76
2022-08-21T03:10:18.530Z,18.79
2022-08-21T03:11:24.412Z,18.79
2022-08-21T03:12:29.825Z,18.81
2022-08-21T03:13:34.935Z,18.81
2022-08-21T03:14:40.936Z,18.82
2022-08-21T03:15:45.166Z,18.82
2022-08-21T03:16:49.231Z,18.82
2022-08-21T03:17:53.779Z,18.86
2022-08-21T03:18:59.872Z,17.80
2022-08-21T03:20:05.181Z,18.91
2022-08-21T03:21:09.262Z,18.95
2022-08-21T03:22:13.302Z,19.00
2022-08-21T03:23:19.101Z,19.00
2022-08-21T03:24:23.620Z,19.11
2022-08-21T03:25:40.377Z,19.11
2022-08-21T03:26:35.433Z,19.29
2022-08-21T03:27:39.874Z,19.29
2022-08-21T03:28:45.565Z,19.47
2022-08-21T03:29:49.528Z,19.47
2022-08-21T03:30:54.327Z,19.66
2022-08-21T03:31:58.328Z,19.66
2022-08-21T03:33:02.638Z,19.79
2022-08-21T03:34:09.151Z,20.01
2022-08-21T03:35:13.546Z,20.06
2022-08-21T03:36:19.128Z,20.16
2022-08-21T03:37:23.097Z,20.18
2022-08-21T03:38:29.449Z,20.18
2022-08-21T03:39:33.843Z,20.25
2022-08-21T03:40:38.057Z,20.28
2022-08-21T03:41:42.253Z,20.28
2022-08-21T03:42:47.690Z,20.42
2022-08-21T03:43:51.715Z,20.57
2022-08-21T03:44:58.787Z,20.65
2022-08-21T03:46:05.088Z,20.65
2022-08-21T03:47:09.121Z,20.89
2022-08-21T03:48:13.427Z,20.99
2022-08-21T03:49:17.632Z,20.99
2022-08-21T03:50:24.474Z,21.12
2022-08-21T03:51:28.507Z,21.19
2022-08-21T03:52:32.508Z,21.30
2022-08-21T03:53:36.625Z,21.30
2022-08-21T03:54:40.835Z,21.39
2022-08-21T03:55:46.852Z,19.84
2022-08-21T03:56:50.900Z,21.57
2022-08-21T03:57:55.336Z,21.57
2022-08-21T03:58:59.641Z,21.59
2022-08-21T04:00:05.648Z,21.59
2022-08-21T04:01:11.430Z,21.73
2022-08-21T04:02:20.660Z,21.73
2022-08-21T04:03:24.789Z,21.91
2022-08-21T04:04:30.510Z,21.91
2022-08-21T04:05:34.713Z,22.04
2022-08-21T04:06:39.059Z,22.04
2022-08-21T04:07:43.079Z,22.14
2022-08-21T04:08:48.676Z,22.19
2022-08-21T04:09:55.450Z,22.17
2022-08-21T04:10:59.691Z,22.17
2022-08-21T04:12:05.642Z,22.16
2022-08-21T04:13:10.247Z,22.16
2022-08-21T04:14:15.460Z,22.20
2022-08-21T04:15:21.421Z,22.26
2022-08-21T04:16:27.064Z,22.22
2022-08-21T04:17:31.014Z,22.30
2022-08-21T04:18:36.751Z,22.28
2022-08-21T04:19:40.830Z,22.36
2022-08-21T04:20:50.207Z,22.36
2022-08-21T04:21:53.211Z,22.44
2022-08-21T04:22:58.165Z,22.52
2022-08-21T04:24:02.387Z,22.58
2022-08-21T04:25:06.930Z,22.58
2022-08-21T04:26:12.206Z,22.68
2022-08-21T04:27:16.193Z,22.72
2022-08-21T04:28:20.447Z,22.74
2022-08-21T04:29:24.417Z,22.87
2022-08-21T04:30:31.569Z,23.15
2022-08-21T04:31:36.884Z,23.28
2022-08-21T04:32:49.796Z,23.34
2022-08-21T04:33:53.901Z,23.34
2022-08-21T04:35:02.933Z,23.45
2022-08-21T04:36:07.363Z,23.46
2022-08-21T04:37:11.387Z,23.46
2022-08-21T04:38:15.431Z,23.50
2022-08-21T04:39:19.475Z,23.54
2022-08-21T04:40:27.643Z,23.60
2022-08-21T04:41:31.792Z,23.60
2022-08-21T04:42:38.896Z,23.43
2022-08-21T04:43:42.993Z,23.58
2022-08-21T04:44:49.274Z,23.58
2022-08-21T04:45:53.901Z,23.64
2022-08-21T04:46:59.572Z,23.80
2022-08-21T04:48:09.570Z,23.71
2022-08-21T04:49:12.197Z,23.55
2022-08-21T04:50:16.794Z,23.55
2022-08-21T04:51:37.121Z,23.39
2022-08-21T04:52:41.254Z,23.17
2022-08-21T04:53:54.270Z,22.96
2022-08-21T04:54:58.365Z,22.82
2022-08-21T04:56:12.750Z,22.72
2022-08-21T04:57:17.924Z,22.33
2022-08-21T04:58:26.438Z,22.24
2022-08-21T04:59:33.427Z,22.24
2022-08-21T05:00:37.984Z,22.22
2022-08-21T05:01:42.849Z,22.14
2022-08-21T05:02:47.884Z,22.19
2022-08-21T05:03:56.429Z,22.28
2022-08-21T05:05:01.532Z,22.39
2022-08-21T05:06:07.993Z,22.57
2022-08-21T05:07:14.948Z,22.69
2022-08-21T05:08:21.982Z,23.07
2022-08-21T05:09:26.717Z,23.07
2022-08-21T05:10:32.718Z,23.46
2022-08-21T05:11:37.841Z,23.57
2022-08-21T05:12:45.457Z,23.57
2022-08-21T05:13:52.343Z,23.75
2022-08-21T05:14:55.917Z,23.92
2022-08-21T05:16:00.100Z,24.22
2022-08-21T05:17:04.491Z,24.40
2022-08-21T05:18:08.699Z,24.40
2022-08-21T05:19:14.596Z,24.41
2022-08-21T05:20:22.101Z,24.47
2022-08-21T05:21:26.082Z,24.60
2022-08-21T05:22:31.677Z,24.85
2022-08-21T05:23:38.269Z,24.97
2022-08-21T05:24:41.494Z,24.97
2022-08-21T05:25:45.725Z,24.85
2022-08-21T05:26:50.449Z,24.83
2022-08-21T05:27:54.590Z,24.83
2022-08-21T05:28:59.510Z,24.73
2022-08-21T05:30:05.726Z,24.67
2022-08-21T05:31:09.857Z,24.61
2022-08-21T05:32:20.006Z,24.61
2022-08-21T05:33:25.491Z,24.68
2022-08-21T05:34:29.644Z,24.68
2022-08-21T05:35:34.435Z,24.71
2022-08-21T05:36:41.275Z,24.65
2022-08-21T05:37:46.896Z,24.55
2022-08-21T05:38:51.528Z,24.55
2022-08-21T05:40:20.760Z,24.36
2022-08-21T05:41:03.505Z,24.36
2022-08-21T05:42:08.071Z,24.23
2022-08-21T05:43:14.092Z,24.23
2022-08-21T05:44:17.775Z,23.88
2022-08-21T05:45:41.321Z,23.81
2022-08-21T05:46:32.038Z,23.61
2022-08-21T05:47:38.772Z,23.57
2022-08-21T05:48:42.898Z,23.57
2022-08-21T05:49:46.965Z,23.55
2022-08-21T05:50:53.283Z,23.66
2022-08-21T05:51:58.513Z,23.86
2022-08-21T05:53:07.060Z,24.10
2022-08-21T05:54:09.950Z,24.10
2022-08-21T05:55:14.282Z,24.39
2022-08-21T05:56:18.933Z,24.39
2022-08-21T05:57:26.095Z,24.67
2022-08-21T05:58:30.130Z,24.67
2022-08-21T05:59:35.372Z,24.80
2022-08-21T06:00:42.420Z,24.80
2022-08-21T06:01:46.717Z,24.89
2022-08-21T06:02:51.598Z,25.08
2022-08-21T06:03:56.775Z,25.21
2022-08-21T06:05:01.292Z,25.31
2022-08-21T06:06:06.966Z,25.31
2022-08-21T06:07:13.020Z,25.45
2022-08-21T06:08:17.963Z,25.75
2022-08-21T06:09:21.997Z,25.86
2022-08-21T06:10:27.737Z,25.86
2022-08-21T06:11:32.277Z,25.82
2022-08-21T06:12:36.335Z,25.85
2022-08-21T06:13:41.611Z,25.86
2022-08-21T06:14:45.756Z,25.85
2022-08-21T06:15:50.383Z,25.85
2022-08-21T06:16:54.451Z,25.89
2022-08-21T06:18:00.120Z,25.88
2022-08-21T06:19:04.194Z,25.89
2022-08-21T06:20:10.851Z,25.92
2022-08-21T06:21:15.394Z,26.16
2022-08-21T06:22:20.529Z,26.25
2022-08-21T06:23:24.530Z,26.25
2022-08-21T06:24:30.729Z,26.35
2022-08-21T06:25:34.885Z,26.50
2022-08-21T06:26:39.841Z,26.51
2022-08-21T06:27:43.866Z,26.51
2022-08-21T06:28:50.160Z,26.67
2022-08-21T06:29:54.299Z,26.69
2022-08-21T06:30:58.504Z,26.76
2022-08-21T06:32:05.188Z,26.80
2022-08-21T06:33:09.490Z,26.89
2022-08-21T06:34:13.665Z,26.89
2022-08-21T06:35:17.614Z,26.84
2022-08-21T06:36:23.524Z,26.87
2022-08-21T06:37:29.219Z,26.87
2022-08-21T06:38:34.832Z,26.85
2022-08-21T06:39:44.661Z,26.89
2022-08-21T06:40:48.295Z,26.86
2022-08-21T06:41:52.462Z,26.86
2022-08-21T06:42:58.928Z,26.82
2022-08-21T06:44:03.238Z,26.88
2022-08-21T06:45:07.626Z,26.93
2022-08-21T06:46:14.578Z,26.93
2022-08-21T06:47:21.079Z,26.91
2022-08-21T06:48:25.409Z,27.00
2022-08-21T06:49:29.492Z,27.00
2022-08-21T06:50:43.148Z,26.92
2022-08-21T06:51:41.835Z,26.92
2022-08-21T06:52:46.070Z,26.84
2022-08-21T06:53:52.164Z,26.84
2022-08-21T06:54:56.157Z,26.87
2022-08-21T06:56:00.161Z,26.96
2022-08-21T06:57:04.459Z,26.96
2022-08-21T06:58:09.020Z,27.02
2022-08-21T06:59:15.826Z,27.02
2022-08-21T07:00:21.275Z,26.97
2022-08-21T07:01:26.915Z,26.97
2022-08-21T07:02:30.952Z,26.97
2022-08-21T07:03:39.843Z,26.89
2022-08-21T07:04:44.009Z,26.81
2022-08-21T07:05:48.122Z,26.81
2022-08-21T07:06:52.369Z,26.49
2022-08-21T07:07:56.901Z,26.49
2022-08-21T07:09:04.493Z,26.56
2022-08-21T07:10:22.361Z,26.60
2022-08-21T07:11:22.124Z,26.51
2022-08-21T07:12:26.172Z,26.59
2022-08-21T07:13:33.750Z,26.61
2022-08-21T07:14:36.561Z,26.61
2022-08-21T07:15:40.705Z,26.59
2022-08-21T07:16:44.987Z,26.63
2022-08-21T07:17:48.957Z,26.63
2022-08-21T07:18:57.756Z,26.52
2022-08-21T07:20:00.505Z,26.52
2022-08-21T07:21:08.249Z,26.41
2022-08-21T07:22:13.507Z,26.28
2022-08-21T07:23:29.593Z,26.26
2022-08-21T07:24:33.639Z,26.26
2022-08-21T07:25:37.863Z,26.41
2022-08-21T07:26:42.867Z,26.46
2022-08-21T07:27:48.501Z,26.46
2022-08-21T07:28:53.415Z,26.52
2022-08-21T07:30:02.559Z,26.68
2022-08-21T07:31:08.290Z,26.68
2022-08-21T07:32:13.272Z,26.69
2022-08-21T07:33:17.462Z,26.69
2022-08-21T07:34:21.666Z,26.75
2022-08-21T07:35:27.683Z,26.68
2022-08-21T07:36:33.319Z,26.68
2022-08-21T07:37:39.038Z,26.62
2022-08-21T07:38:43.115Z,26.57
2022-08-21T07:39:47.327Z,26.57
2022-08-21T07:40:56.367Z,26.67
2022-08-21T07:42:02.940Z,26.68
2022-08-21T07:43:06.167Z,26.74
2022-08-21T07:44:10.166Z,26.75
2022-08-21T07:45:18.604Z,26.75
2022-08-21T07:46:25.708Z,26.75
2022-08-21T07:47:42.358Z,26.68
2022-08-21T07:48:36.841Z,26.68
2022-08-21T07:49:40.909Z,26.73
2022-08-21T07:50:45.533Z,26.69
2022-08-21T07:51:50.958Z,26.69
2022-08-21T07:52:55.055Z,26.74
2022-08-21T07:54:00.845Z,26.74
2022-08-21T07:55:06.650Z,26.82
2022-08-21T07:56:12.452Z,26.86
2022-08-21T07:57:19.277Z,26.87
2022-08-21T07:58:25.138Z,26.87
2022-08-21T07:59:29.948Z,26.91
2022-08-21T08:00:35.160Z,26.90
2022-08-21T08:01:39.220Z,26.90
2022-08-21T08:02:49.199Z,26.96
2022-08-21T08:03:53.334Z,26.96
2022-08-21T08:05:02.578Z,27.05
2022-08-21T08:06:07.865Z,27.05
2022-08-21T08:07:14.572Z,26.95
2022-08-21T08:08:18.733Z,27.02
2022-08-21T08:09:22.795Z,27.02
2022-08-21T08:10:30.383Z,27.03
2022-08-21T08:11:47.471Z,27.03
2022-08-21T08:12:43.562Z,26.98
2022-08-21T08:13:52.683Z,27.05
2022-08-21T08:14:59.133Z,27.07
2022-08-21T08:16:04.888Z,27.09
2022-08-21T08:17:08.922Z,27.12
2022-08-21T08:18:12.998Z,27.12
2022-08-21T08:19:16.991Z,27.18
2022-08-21T08:20:23.804Z,27.25
2022-08-21T08:21:28.235Z,27.22
2022-08-21T08:22:32.508Z,27.08
2022-08-21T08:23:39.957Z,27.09
2022-08-21T08:24:45.446Z,27.10
2022-08-21T08:25:49.479Z,27.14
2022-08-21T08:26:53.983Z,27.14
2022-08-21T08:27:58.422Z,27.24
2022-08-21T08:29:17.837Z,27.24
2022-08-21T08:30:11.613Z,27.35
2022-08-21T08:31:15.722Z,27.35
2022-08-21T08:32:22.053Z,27.41
2022-08-21T08:33:26.139Z,27.41
2022-08-21T08:34:30.192Z,27.41
2022-08-21T08:35:34.380Z,27.37
2022-08-21T08:36:40.733Z,27.30
2022-08-21T08:37:52.194Z,27.20
2022-08-21T08:38:53.552Z,27.22
2022-08-21T08:39:57.807Z,27.22
2022-08-21T08:41:11.026Z,27.24
2022-08-21T08:42:33.386Z,27.25
2022-08-21T08:43:37.474Z,27.19
2022-08-21T08:44:45.661Z,27.14
2022-08-21T08:45:59.311Z,27.17
2022-08-21T08:47:04.817Z,27.17
2022-08-21T08:48:14.043Z,27.06
2022-08-21T08:49:21.734Z,27.06
2022-08-21T08:50:43.889Z,27.08
2022-08-21T08:51:59.920Z,27.18
2022-08-21T08:53:09.678Z,27.18
2022-08-21T08:54:22.718Z,27.24
2022-08-21T08:55:29.709Z,27.24
2022-08-21T08:56:35.457Z,27.27
2022-08-21T08:57:44.066Z,27.28
2022-08-21T08:58:52.887Z,27.39
2022-08-21T09:00:00.345Z,27.39
2022-08-21T09:01:10.511Z,27.22
2022-08-21T09:02:17.419Z,27.16
2022-08-21T09:03:24.991Z,27.16
2022-08-21T09:04:30.216Z,27.13
2022-08-21T09:06:02.608Z,27.12
2022-08-21T09:07:15.269Z,27.06
2022-08-21T09:08:41.613Z,27.05
2022-08-21T09:10:21.486Z,27.05
2022-08-21T09:11:34.449Z,27.05
2022-08-21T09:12:59.552Z,27.08
2022-08-21T09:14:08.014Z,27.09
2022-08-21T09:15:32.991Z,27.10
2022-08-21T09:16:55.262Z,27.15
2022-08-21T09:18:24.799Z,27.15
2022-08-21T09:19:48.760Z,27.22
2022-08-21T09:21:07.579Z,27.18
2022-08-21T09:22:17.531Z,27.18
2022-08-21T09:23:39.833Z,27.23
2022-08-21T09:25:10.836Z,27.19
2022-08-21T09:26:20.648Z,27.19
2022-08-21T09:27:24.787Z,27.12
2022-08-21T09:28:30.377Z,27.04
2022-08-21T09:29:41.584Z,27.05
2022-08-21T09:30:45.917Z,27.19
2022-08-21T09:31:49.975Z,27.18
2022-08-21T09:32:54.122Z,27.25
2022-08-21T09:34:06.909Z,27.25
2022-08-21T09:35:18.736Z,27.24
2022-08-21T09:36:43.771Z,27.26
2022-08-21T09:37:59.410Z,27.30
2022-08-21T09:39:04.134Z,27.25
2022-08-21T09:40:23.446Z,27.28
2022-08-21T09:41:33.228Z,27.28
2022-08-21T09:42:37.376Z,27.23
2022-08-21T09:43:41.669Z,27.23
2022-08-21T09:44:52.579Z,27.03
2022-08-21T09:46:09.303Z,27.03
2022-08-21T09:47:17.798Z,27.10
2022-08-21T09:48:26.993Z,27.11
2022-08-21T09:49:36.248Z,27.06
2022-08-21T09:50:53.343Z,27.08
2022-08-21T09:51:54.708Z,27.08
2022-08-21T09:53:03.142Z,27.15
2022-08-21T09:54:10.195Z,27.15
2022-08-21T09:55:25.959Z,27.17
2022-08-21T09:56:38.534Z,27.07
2022-08-21T09:57:50.623Z,27.10
2022-08-21T09:58:52.874Z,27.10
2022-08-21T10:00:03.665Z,27.13
2022-08-21T10:01:07.430Z,27.04
2022-08-21T10:02:26.306Z,27.04
2022-08-21T10:03:30.487Z,27.03
2022-08-21T10:04:36.803Z,27.07
2022-08-21T10:05:47.874Z,27.06
2022-08-21T10:06:48.946Z,27.06
2022-08-21T10:07:54.842Z,27.12
2022-08-21T10:09:21.086Z,27.05
2022-08-21T10:10:27.125Z,26.96
2022-08-21T10:11:32.657Z,26.93
2022-08-21T10:13:01.850Z,26.85
2022-08-21T10:14:17.802Z,26.88
2022-08-21T10:15:36.618Z,26.89
2022-08-21T10:16:45.168Z,26.97
2022-08-21T10:18:00.711Z,26.93
2022-08-21T10:19:12.512Z,26.97
2022-08-21T10:20:22.190Z,26.97
2022-08-21T10:21:39.732Z,27.01
2022-08-21T10:22:46.784Z,27.06
2022-08-21T10:24:05.823Z,27.07
2022-08-21T10:25:33.758Z,27.10
2022-08-21T10:26:55.713Z,26.96
2022-08-21T10:28:06.608Z,27.03
2022-08-21T10:29:29.906Z,27.03
2022-08-21T10:30:51.291Z,26.93
2022-08-21T10:32:25.575Z,26.93
2022-08-21T10:33:39.569Z,26.99
2022-08-21T10:34:51.191Z,27.01
2022-08-21T10:36:10.935Z,27.01
2022-08-21T10:37:31.005Z,27.01
2022-08-21T10:39:02.320Z,27.03
2022-08-21T10:40:01.142Z,27.05
2022-08-21T10:41:24.685Z,27.06
2022-08-21T10:42:47.724Z,27.07
2022-08-21T10:44:12.400Z,27.07
2022-08-21T10:45:28.034Z,27.15
2022-08-21T10:46:49.214Z,27.15
2022-08-21T10:47:58.996Z,27.13
2022-08-21T10:49:06.108Z,27.14
2022-08-21T10:50:20.465Z,27.18
2022-08-21T10:51:45.351Z,27.18
2022-08-21T10:52:55.030Z,27.31
2022-08-21T10:54:23.477Z,27.24
2022-08-21T10:55:49.858Z,27.24
2022-08-21T10:56:46.826Z,27.18
2022-08-21T10:57:59.846Z,27.21
2022-08-21T10:59:23.054Z,27.21
2022-08-21T11:00:36.606Z,27.18
2022-08-21T11:01:59.734Z,27.18
2022-08-21T11:03:09.311Z,27.20
2022-08-21T11:04:19.280Z,27.20
2022-08-21T11:05:38.247Z,27.21
2022-08-21T11:06:45.717Z,27.28
2022-08-21T11:08:09.921Z,27.26
2022-08-21T11:09:16.999Z,27.29
2022-08-21T11:10:31.550Z,27.22
2022-08-21T11:11:43.838Z,27.22
2022-08-21T11:12:52.002Z,27.26
2022-08-21T11:14:00.580Z,27.16
2022-08-21T11:15:28.704Z,27.16
2022-08-21T11:16:29.239Z,27.26
2022-08-21T11:17:44.807Z,27.25
2022-08-21T11:19:05.844Z,27.18
2022-08-21T11:20:21.739Z,27.19
2022-08-21T11:21:51.254Z,27.19
2022-08-21T11:23:04.590Z,27.17
2022-08-21T11:24:20.714Z,27.18
2022-08-21T11:25:37.247Z,27.18
2022-08-21T11:27:02.215Z,27.08
2022-08-21T11:28:14.906Z,27.15
2022-08-21T11:29:27.001Z,27.19
2022-08-21T11:30:32.209Z,27.19
2022-08-21T11:31:42.061Z,27.30
2022-08-21T11:32:59.275Z,27.30
2022-08-21T11:34:31.701Z,27.30
2022-08-21T11:35:53.288Z,27.30
2022-08-21T11:37:04.612Z,27.30
2022-08-21T11:38:35.514Z,27.30
2022-08-21T11:40:00.323Z,27.33
2022-08-21T11:41:23.556Z,27.34
2022-08-21T11:42:45.418Z,27.34
2022-08-21T11:43:58.469Z,27.37
2022-08-21T11:45:41.554Z,27.35
2022-08-21T11:46:51.286Z,27.33
2022-08-21T11:48:30.955Z,27.33
2022-08-21T11:49:52.587Z,27.35
2022-08-21T11:50:58.597Z,27.33
2022-08-21T11:52:17.904Z,27.38
2022-08-21T11:53:33.814Z,27.38
2022-08-21T11:54:45.119Z,27.47
2022-08-21T11:55:52.138Z,27.51
2022-08-21T11:57:05.122Z,27.53
2022-08-21T11:58:20.760Z,27.52
2022-08-21T11:59:27.739Z,27.54
2022-08-21T12:00:37.608Z,27.55
2022-08-21T12:01:44.916Z,27.55
2022-08-21T12:02:52.005Z,27.55
2022-08-21T12:04:07.776Z,27.56
2022-08-21T12:05:14.814Z,27.56
2022-08-21T12:06:30.265Z,27.54
2022-08-21T12:07:36.502Z,27.54
2022-08-21T12:08:48.275Z,27.52
2022-08-21T12:09:58.360Z,27.55
2022-08-21T12:11:23.219Z,27.55
2022-08-21T12:12:36.221Z,27.54
2022-08-21T12:13:43.578Z,27.46
2022-08-21T12:14:51.880Z,27.46
2022-08-21T12:16:07.254Z,27.44
2022-08-21T12:17:24.538Z,27.42
2022-08-21T12:18:32.809Z,27.41
2022-08-21T12:19:37.297Z,27.46
2022-08-21T12:20:50.235Z,27.49
2022-08-21T12:21:53.568Z,27.44
2022-08-21T12:23:12.679Z,27.44
2022-08-21T12:24:17.816Z,27.42
2022-08-21T12:25:23.019Z,27.39
2022-08-21T12:26:30.119Z,27.37
2022-08-21T12:27:48.983Z,27.38
2022-08-21T12:28:54.621Z,27.38
2022-08-21T12:30:01.623Z,27.41
2022-08-21T12:31:07.256Z,27.43
2022-08-21T12:32:21.682Z,27.44
2022-08-21T12:33:28.709Z,27.52
2022-08-21T12:34:38.405Z,27.52
2022-08-21T12:35:44.681Z,27.56
2022-08-21T12:37:05.829Z,27.60
2022-08-21T12:38:10.504Z,27.60
2022-08-21T12:39:20.101Z,27.58
2022-08-21T12:40:33.330Z,27.58
2022-08-21T12:41:41.818Z,27.58
2022-08-21T12:42:58.264Z,27.58
2022-08-21T12:44:02.328Z,27.48
2022-08-21T12:45:08.190Z,27.48
2022-08-21T12:46:24.907Z,27.45
2022-08-21T12:47:34.859Z,27.45
2022-08-21T12:48:44.667Z,27.46
2022-08-21T12:49:54.331Z,27.46
2022-08-21T12:51:01.428Z,27.44
2022-08-21T12:54:53.193Z,27.48
2022-08-21T12:56:02.188Z,27.50
2022-08-21T12:57:08.096Z,27.50
2022-08-21T12:58:23.485Z,27.54
2022-08-21T12:59:27.985Z,27.47
2022-08-21T13:00:32.235Z,27.45
2022-08-21T13:01:42.256Z,27.40
2022-08-21T13:02:49.319Z,27.40
2022-08-21T13:04:04.081Z,27.41
2022-08-21T13:05:05.696Z,27.45
2022-08-21T13:06:12.878Z,27.45
2022-08-21T13:07:22.570Z,27.49
2022-08-21T13:08:29.058Z,27.49
2022-08-21T13:09:33.300Z,27.51
2022-08-21T13:10:40.253Z,27.49
2022-08-21T13:11:47.153Z,27.41
2022-08-21T13:12:58.815Z,27.41
2022-08-21T13:14:06.231Z,27.45
2022-08-21T13:15:12.419Z,27.42
2022-08-21T13:16:28.404Z,27.43
2022-08-21T13:17:37.184Z,27.45
2022-08-21T13:18:54.210Z,27.50
2022-08-21T13:20:02.835Z,27.55
2022-08-21T13:21:11.780Z,27.53
2022-08-21T13:22:34.903Z,27.49
2022-08-21T13:23:29.790Z,27.49
2022-08-21T13:24:42.699Z,27.52
2022-08-21T13:25:43.828Z,27.52
2022-08-21T13:26:50.100Z,27.53
2022-08-21T13:28:08.718Z,27.47
2022-08-21T13:29:15.722Z,27.47
2022-08-21T13:30:22.419Z,27.51
2022-08-21T13:31:30.832Z,27.50
2022-08-21T13:32:40.130Z,27.51
2022-08-21T13:33:46.444Z,27.51
2022-08-21T13:34:53.916Z,27.53
2022-08-21T13:36:14.622Z,27.57
2022-08-21T13:37:19.529Z,27.57
2022-08-21T13:38:27.209Z,27.54
2022-08-21T13:39:32.209Z,27.54
2022-08-21T13:40:52.733Z,27.55
2022-08-21T13:42:02.227Z,27.53
2022-08-21T13:43:11.019Z,27.53
2022-08-21T13:44:23.914Z,27.49
2022-08-21T13:45:30.883Z,27.48
2022-08-21T13:46:37.921Z,27.45
2022-08-21T13:47:42.617Z,27.43
2022-08-21T13:48:46.916Z,27.39
2022-08-21T13:49:59.165Z,27.32
2022-08-21T13:51:02.678Z,27.35
2022-08-21T13:52:15.671Z,27.35
2022-08-21T13:53:33.145Z,27.38
2022-08-21T13:54:42.628Z,27.45
2022-08-21T13:55:59.944Z,27.45
2022-08-21T13:57:01.484Z,27.45
2022-08-21T13:58:07.107Z,27.44
2022-08-21T13:59:13.420Z,27.39
2022-08-21T14:00:25.360Z,27.42
2022-08-21T14:01:41.183Z,27.39
2022-08-21T14:02:48.720Z,27.39
2022-08-21T14:03:57.405Z,27.39
2022-08-21T14:05:05.691Z,27.39
2022-08-21T14:06:22.440Z,27.39
2022-08-21T14:07:29.505Z,27.38
2022-08-21T14:08:38.081Z,27.40
2022-08-21T14:09:45.697Z,27.41
2022-08-21T14:10:57.221Z,27.39
2022-08-21T14:12:03.552Z,27.39
2022-08-21T14:13:10.877Z,27.24
2022-08-21T14:14:29.481Z,27.24
2022-08-21T14:15:35.877Z,27.19
2022-08-21T14:16:47.577Z,27.22
2022-08-21T14:17:54.317Z,27.22
2022-08-21T14:19:04.394Z,27.21
2022-08-21T14:20:12.451Z,27.21
2022-08-21T14:21:22.025Z,27.19
2022-08-21T14:22:49.917Z,27.20
2022-08-21T14:23:51.836Z,27.17
2022-08-21T14:25:24.788Z,27.17
2022-08-21T14:26:29.647Z,27.15
2022-08-21T14:27:26.568Z,27.15
2022-08-21T14:28:43.953Z,27.12
2022-08-21T14:29:49.834Z,27.15
2022-08-21T14:30:56.096Z,27.15
2022-08-21T14:32:02.573Z,27.13
2022-08-21T14:33:18.457Z,27.13
2022-08-21T14:34:26.662Z,27.09
2022-08-21T14:35:31.648Z,27.06
2022-08-21T14:36:37.718Z,26.99
2022-08-21T14:37:45.761Z,27.03
2022-08-21T14:38:49.988Z,27.07
2022-08-21T14:39:54.189Z,27.05
2022-08-21T14:41:04.242Z,26.97